RPLL/MNL METAR and TAF weather

Enter ICAO airport designator
Station Type Date Time Source
RPLL METAR 2022/08/16 19:00 UTC NOAA

RPLL 161900Z VRB01KT 9999 FEW025 SCT300 27/24 Q1008 NOSIG RMK A2977


Station Type Date Time Source
RPLL Decoded METAR 2022/08/16 19:00 UTC NOAA

Ninoy Aquino Inter-National Airport, Philippines (RPLL) 14-31N 121-00E 15M
Aug 16, 2022 - 03:00 PM EDT / 2022.08.16 1900 UTC
Wind: Variable at 1 MPH (1 KT):0
Visibility: greater than 7 mile(s):0
Sky conditions: partly cloudy
Temperature: 80 F (27 C)
Dew Point: 75 F (24 C)
Relative Humidity: 83%
Pressure (altimeter): 29.77 in. Hg (1008 hPa)
ob: RPLL 161900Z VRB01KT 9999 FEW025 SCT300 27/24 Q1008 NOSIG RMK A2977
cycle: 19

Station Type Date Time Source
RPLL TAF 2022/08/16 18:01 UTC NOAA

TAF RPLL 161700Z 1618/1724 25007KT 9999 FEW025 SCT100 BKN300 TX32/1706Z TN25/1622Z
TEMPO 1618/1624 VRB02KT SCT023 BKN100
TEMPO 1700/1706 27015KT 8000 -SHRA SCT023 OVC100

Example: see airport list